Perry, IA

2:33 AM CDT on March 28, 2017 (GMT -0500)
Perry Municipal

Weather History for KPRO - September, 2012

Change the Weather History Date:

Sunday, September 30, 2012

  Actual Average Record
Temperature  
Mean Temperature 65 °F -  
Max Temperature 85 °F 72 °F 91 °F (1952)
Min Temperature 45 °F 45 °F -2 °F (2015)
Growing Degree Days 15 (Base 50)    
Moisture  
Dew Point 37 °F    
Average Humidity 43    
Maximum Humidity 80    
Minimum Humidity 14    
Precipitation  
Precipitation 0.00 in - - ()
Sea Level Pressure  
Sea Level Pressure 29.96 in    
Wind  
Wind Speed 4 mph (NW)    
Max Wind Speed 8 mph    
Max Gust Speed -    
Visibility 10 miles    
Events      
Averages and records for this station are not official NWS values.
T = Trace of Precipitation, MM = Missing Value Source: NWS Daily Summary

Daily Weather History Graph

Daily Weather History Graph

Search for Another Location

Airport or City:

Trip Planner

Search our weather history database for the weather conditions in past years. The results will help you decide how hot, cold, wet, or windy it might be!

Date:

Astronomy

Sep. 30, 2012 Rise Set
Actual Time 7:13 AM CDT 6:59 PM CDT
Civil Twilight 6:45 AM CDT 7:26 PM CDT
Nautical Twilight 6:12 AM CDT 7:59 PM CDT
Astronomical Twilight 5:40 AM CDT 8:31 PM CDT
Moon 7:01 PM CDT (9/30) 7:45 AM CDT (9/30)
Length of Visible Light 12h 41m
Length of Day
11h 46m
Full, 100% of the Moon is Illuminated
Sep 30
Full
Oct 8
Last Quarter
Oct 15
New
Oct 21
First Quarter
Oct 29
Full

Hourly Weather History & Observations

Time (CDT) Temp. Windchill Dew Point Humidity Pressure Visibility Wind Dir Wind Speed Gust Speed Precip Events Conditions
12:15 AM 52.0 °F - 40.1 °F 64% 30.03 in 10.0 mi WNW 4.6 mph - N/A   Clear
1:15 AM 51.8 °F - 40.5 °F 65% 30.02 in 10.0 mi WNW 6.9 mph - N/A   Clear
1:35 AM 51.4 °F - 40.5 °F 66% 30.03 in 10.0 mi WNW 6.9 mph - N/A   Clear
1:55 AM 50.5 °F - 40.3 °F 68% 30.03 in 10.0 mi WNW 5.8 mph - N/A   Clear
2:15 AM 50.2 °F - 40.1 °F 68% 30.03 in 10.0 mi WNW 4.6 mph - N/A   Clear
2:35 AM 49.3 °F - 39.7 °F 70% 30.02 in 10.0 mi Calm Calm - N/A   Clear
2:55 AM 48.4 °F - 39.4 °F 71% 30.02 in 10.0 mi Calm Calm - N/A   Clear
3:15 AM 48.6 °F - 39.6 °F 71% 30.02 in 10.0 mi Calm Calm - N/A   Clear
3:35 AM 48.9 °F - 40.1 °F 72% 30.01 in 10.0 mi NW 3.5 mph - N/A   Clear
3:55 AM 47.5 °F - 39.4 °F 73% 30.01 in 10.0 mi WNW 3.5 mph - N/A   Clear
4:15 AM 47.5 °F - 39.6 °F 74% 30.01 in 10.0 mi WNW 4.6 mph - N/A   Clear
4:35 AM 47.8 °F - 40.3 °F 75% 30.00 in 10.0 mi West 6.9 mph - N/A   Clear
5:15 AM 46.9 °F - 39.7 °F 76% 30.00 in 10.0 mi West 5.8 mph - N/A   Clear
5:35 AM 46.0 °F 44.8 °F 39.0 °F 76% 30.00 in 10.0 mi WNW 3.5 mph - N/A   Clear
5:55 AM 46.4 °F 45.2 °F 38.7 °F 74% 29.99 in 10.0 mi NW 3.5 mph - N/A   Clear
6:15 AM 45.7 °F 43.4 °F 39.2 °F 78% 29.99 in 10.0 mi WNW 4.6 mph - N/A   Clear
6:35 AM 47.1 °F - 40.5 °F 78% 29.99 in 10.0 mi West 6.9 mph - N/A   Clear
6:55 AM 46.4 °F 44.3 °F 40.1 °F 79% 29.99 in 10.0 mi WNW 4.6 mph - N/A   Clear
7:15 AM 45.5 °F 43.2 °F 39.2 °F 79% 29.99 in 10.0 mi WNW 4.6 mph - N/A   Clear
7:35 AM 46.0 °F 43.9 °F 40.3 °F 80% 29.99 in 10.0 mi WNW 4.6 mph - N/A   Clear
7:55 AM 48.0 °F - 41.9 °F 79% 29.99 in 10.0 mi WNW 3.5 mph - N/A   Clear
8:15 AM 52.2 °F - 42.6 °F 70% 29.99 in 10.0 mi Calm Calm - N/A   Clear
8:35 AM 55.6 °F - 42.8 °F 62% 29.99 in 10.0 mi NW 3.5 mph - N/A   Clear
8:55 AM 59.2 °F - 42.3 °F 53% 30.00 in 10.0 mi NW 3.5 mph - N/A   Clear
9:15 AM 62.1 °F - 41.9 °F 48% 30.00 in 10.0 mi NNW 3.5 mph - N/A   Clear
9:35 AM 65.8 °F - 41.2 °F 41% 30.00 in 10.0 mi NNW 4.6 mph - N/A   Clear
9:55 AM 68.5 °F - 41.0 °F 37% 30.00 in 10.0 mi NNW 4.6 mph - N/A   Clear
10:15 AM 70.7 °F - 38.1 °F 30% 30.00 in 10.0 mi NNW 4.6 mph - N/A   Clear
10:35 AM 71.6 °F - 37.8 °F 29% 29.99 in 10.0 mi NW 5.8 mph - N/A   Clear
10:55 AM 72.3 °F - 37.2 °F 28% 29.99 in 10.0 mi NW 4.6 mph - N/A   Clear
11:15 AM 74.1 °F - 37.6 °F 27% 29.99 in 10.0 mi NW 4.6 mph - N/A   Clear
11:35 AM 76.1 °F - 36.9 °F 24% 29.98 in 10.0 mi North 4.6 mph - N/A   Clear
11:55 AM 77.9 °F - 36.0 °F 22% 29.98 in 10.0 mi North 5.8 mph - N/A   Clear
12:15 PM 80.1 °F - 35.1 °F 20% 29.98 in 10.0 mi North 4.6 mph - N/A   Clear
12:35 PM 81.3 °F - 32.9 °F 17% 29.97 in 10.0 mi Calm Calm - N/A   Clear
12:55 PM 81.7 °F - 32.9 °F 17% 29.97 in 10.0 mi Calm Calm - N/A   Clear
1:15 PM 83.3 °F - 32.5 °F 16% 29.96 in 10.0 mi NE 8.1 mph - N/A   Clear
1:35 PM 83.1 °F - 32.0 °F 16% 29.94 in 10.0 mi North 5.8 mph - N/A   Clear
1:55 PM 83.5 °F - 32.4 °F 16% 29.94 in 10.0 mi NNW 8.1 mph - N/A   Clear
2:15 PM 85.5 °F - 31.3 °F 14% 29.93 in 10.0 mi WNW 8.1 mph - N/A   Clear
2:35 PM 84.7 °F - 30.7 °F 14% 29.92 in 10.0 mi NW 4.6 mph - N/A   Clear
2:55 PM 84.6 °F - 30.6 °F 14% 29.92 in 10.0 mi NW 8.1 mph - N/A   Clear
3:15 PM 85.3 °F - 30.6 °F 14% 29.91 in 10.0 mi NW 6.9 mph - N/A   Clear
3:35 PM 84.6 °F - 30.0 °F 14% 29.91 in 10.0 mi North 5.8 mph - N/A   Clear
3:55 PM 84.4 °F - 30.0 °F 14% 29.90 in 7.0 mi NNE 8.1 mph - N/A   Clear
4:15 PM 83.3 °F - 30.9 °F 15% 29.90 in 7.0 mi North 4.6 mph - N/A   Clear
4:35 PM 83.5 °F - 31.1 °F 15% 29.90 in 10.0 mi NNW 8.1 mph - N/A   Clear
4:55 PM 82.8 °F - 30.6 °F 15% 29.90 in 10.0 mi North 4.6 mph - N/A   Clear
5:15 PM 83.3 °F - 30.4 °F 15% 29.89 in 10.0 mi North 4.6 mph - N/A   Clear
5:35 PM 83.1 °F - 30.2 °F 15% 29.89 in 10.0 mi North 5.8 mph - N/A   Clear
5:55 PM 81.7 °F - 30.9 °F 16% 29.89 in 10.0 mi Calm Calm - N/A   Clear
6:15 PM 79.9 °F - 32.2 °F 18% 29.89 in 10.0 mi NNE 3.5 mph - N/A   Clear
6:35 PM 77.4 °F - 33.6 °F 20% 29.89 in 10.0 mi Calm Calm - N/A   Clear
6:55 PM 76.3 °F - 34.0 °F 21% 29.89 in 10.0 mi Calm Calm - N/A   Clear
7:15 PM 74.3 °F - 34.3 °F 23% 29.89 in 10.0 mi Calm Calm - N/A   Clear
7:35 PM 70.3 °F - 34.7 °F 27% 29.89 in 10.0 mi Calm Calm - N/A   Clear
8:15 PM 69.8 °F - 36.0 °F 29% 29.90 in 10.0 mi North 3.5 mph - N/A   Clear
8:35 PM 69.1 °F - 36.3 °F 30% 29.90 in 10.0 mi NNE 4.6 mph - N/A   Clear
9:15 PM 65.5 °F - 39.4 °F 38% 29.92 in 10.0 mi Calm Calm - N/A   Clear
9:35 PM 60.6 °F - 41.4 °F 49% 29.92 in 7.0 mi Calm Calm - N/A   Clear
10:15 PM 60.3 °F - 40.1 °F 47% 29.92 in 10.0 mi Calm Calm - N/A   Clear
10:35 PM 59.4 °F - 40.1 °F 49% 29.92 in 10.0 mi Calm Calm - N/A   Clear
11:15 PM 58.5 °F - 40.8 °F 52% 29.92 in 10.0 mi Calm Calm - N/A   Clear
11:35 PM 58.3 °F - 41.4 °F 53% 29.92 in 10.0 mi Calm Calm - N/A   Clear
11:55 PM 58.1 °F - 40.6 °F 52% 29.91 in 10.0 mi Calm Calm - N/A   Clear